createdAt,value
2018-11-27T00:01:18.916Z,4.17
2018-11-27T00:03:53.111Z,4.22
2018-11-27T00:06:22.154Z,4.24
2018-11-27T00:08:51.038Z,4.24
2018-11-27T00:11:20.101Z,4.29
2018-11-27T00:13:48.943Z,4.29
2018-11-27T00:16:17.744Z,4.30
2018-11-27T00:18:46.539Z,4.25
2018-11-27T00:21:15.369Z,4.19
2018-11-27T00:23:44.246Z,4.15
2018-11-27T00:26:13.044Z,4.15
2018-11-27T00:28:41.832Z,4.18
2018-11-27T00:31:10.736Z,4.19
2018-11-27T00:33:40.111Z,4.20
2018-11-27T00:36:08.908Z,4.22
2018-11-27T00:38:37.798Z,4.25
2018-11-27T00:41:06.599Z,4.25
2018-11-27T00:43:35.420Z,4.26
2018-11-27T00:46:04.234Z,4.27
2018-11-27T00:48:33.039Z,4.25
2018-11-27T00:51:01.828Z,4.23
2018-11-27T00:53:30.637Z,4.22
2018-11-27T00:55:59.536Z,4.25
2018-11-27T00:58:28.285Z,4.25
2018-11-27T01:00:57.082Z,4.26
2018-11-27T01:03:25.888Z,4.26
2018-11-27T01:05:54.684Z,4.28
2018-11-27T01:08:23.485Z,4.26
2018-11-27T01:10:52.908Z,4.27
2018-11-27T01:13:21.703Z,4.33
2018-11-27T01:15:50.503Z,4.40
2018-11-27T01:18:19.283Z,4.39
2018-11-27T01:20:48.321Z,4.35
2018-11-27T01:23:17.105Z,4.32
2018-11-27T01:25:45.898Z,4.31
2018-11-27T01:28:14.746Z,4.32
2018-11-27T01:30:43.591Z,4.30
2018-11-27T01:33:12.858Z,4.27
2018-11-27T01:35:41.668Z,4.29
2018-11-27T01:38:10.500Z,4.27
2018-11-27T01:40:39.295Z,4.24
2018-11-27T01:43:08.102Z,4.23
2018-11-27T01:45:36.908Z,4.24
2018-11-27T01:48:05.836Z,4.20
2018-11-27T01:50:34.831Z,4.19
2018-11-27T01:53:04.456Z,4.19
2018-11-27T01:55:33.249Z,4.21
2018-11-27T01:58:02.110Z,4.22
2018-11-27T02:00:31.046Z,4.22
2018-11-27T02:03:00.817Z,4.24
2018-11-27T02:05:30.989Z,4.24
2018-11-27T02:07:59.795Z,4.26
2018-11-27T02:10:29.163Z,4.20
2018-11-27T02:13:01.108Z,4.15
2018-11-27T02:15:27.946Z,4.15
2018-11-27T02:17:57.425Z,4.13
2018-11-27T02:20:26.254Z,4.12
2018-11-27T02:22:55.107Z,4.13
2018-11-27T02:25:25.846Z,4.11
2018-11-27T02:27:54.678Z,4.12
2018-11-27T02:30:24.344Z,4.11
2018-11-27T02:32:53.151Z,4.16
2018-11-27T02:35:22.981Z,4.13
2018-11-27T02:37:52.860Z,4.12
2018-11-27T02:40:21.663Z,4.13
2018-11-27T02:42:50.444Z,4.14
2018-11-27T02:45:20.341Z,4.13
2018-11-27T02:47:50.163Z,4.11
2018-11-27T02:50:20.066Z,4.11
2018-11-27T02:52:48.875Z,4.09
2018-11-27T02:55:20.609Z,4.06
2018-11-27T02:57:49.738Z,4.03
2018-11-27T03:00:22.722Z,4.02
2018-11-27T03:02:51.492Z,4.01
2018-11-27T03:05:36.955Z,4.01
2018-11-27T03:08:05.855Z,3.99
2018-11-27T03:10:34.677Z,3.96
2018-11-27T03:13:03.469Z,3.92
2018-11-27T03:15:32.288Z,3.94
2018-11-27T03:18:01.149Z,3.95
2018-11-27T03:20:29.950Z,3.93
2018-11-27T03:22:58.817Z,3.94
2018-11-27T03:25:27.601Z,3.92
2018-11-27T03:27:56.407Z,3.91
2018-11-27T03:30:26.221Z,3.91
2018-11-27T03:32:55.023Z,3.88
2018-11-27T03:35:24.601Z,3.87
2018-11-27T03:37:53.432Z,3.87
2018-11-27T03:40:24.550Z,3.87
2018-11-27T03:42:53.358Z,3.89
2018-11-27T03:45:22.793Z,3.90
2018-11-27T03:47:51.640Z,3.92
2018-11-27T03:50:24.779Z,3.92
2018-11-27T03:52:53.651Z,3.96
2018-11-27T03:55:22.474Z,3.92
2018-11-27T03:57:51.295Z,3.90
2018-11-27T04:00:21.867Z,3.86
2018-11-27T04:02:54.766Z,3.85
2018-11-27T04:05:24.669Z,3.84
2018-11-27T04:07:53.458Z,3.84
2018-11-27T04:10:22.302Z,3.81
2018-11-27T04:12:51.133Z,3.80
2018-11-27T04:15:19.971Z,3.81
2018-11-27T04:17:48.802Z,3.84
2018-11-27T04:20:17.624Z,3.89
2018-11-27T04:22:46.494Z,3.88
2018-11-27T04:25:16.140Z,3.87
2018-11-27T04:27:45.734Z,3.84
2018-11-27T04:30:15.619Z,3.85
2018-11-27T04:32:44.529Z,3.81
2018-11-27T04:35:14.349Z,3.82
2018-11-27T04:37:43.225Z,3.86
2018-11-27T04:40:16.188Z,3.86
2018-11-27T04:42:45.010Z,3.85
2018-11-27T04:45:19.588Z,3.84
2018-11-27T04:47:48.412Z,3.85
2018-11-27T04:50:17.923Z,3.84
2018-11-27T04:52:46.787Z,3.83
2018-11-27T04:55:16.408Z,3.87
2018-11-27T04:57:46.245Z,3.88
2018-11-27T05:00:19.042Z,3.87
2018-11-27T05:02:47.889Z,3.89
2018-11-27T05:05:16.942Z,3.85
2018-11-27T05:07:45.881Z,3.90
2018-11-27T05:10:17.217Z,3.97
2018-11-27T05:12:46.105Z,3.99
2018-11-27T05:15:16.851Z,3.99
2018-11-27T05:17:48.183Z,3.98
2018-11-27T05:20:15.519Z,3.98
2018-11-27T05:22:44.494Z,3.96
2018-11-27T05:25:14.404Z,3.98
2018-11-27T05:27:49.436Z,3.98
2018-11-27T05:30:20.440Z,3.96
2018-11-27T05:32:49.265Z,3.99
2018-11-27T05:35:19.936Z,4.00
2018-11-27T05:37:49.978Z,4.00
2018-11-27T05:40:23.689Z,3.98
2018-11-27T05:42:54.840Z,3.96
2018-11-27T05:45:24.465Z,3.97
2018-11-27T05:47:53.287Z,3.98
2018-11-27T05:50:22.144Z,4.00
2018-11-27T05:52:52.121Z,3.99
2018-11-27T05:55:20.950Z,3.97
2018-11-27T05:57:51.140Z,3.93
2018-11-27T06:00:23.849Z,3.96
2018-11-27T06:02:56.984Z,3.97
2018-11-27T06:05:25.118Z,3.97
2018-11-27T06:07:53.933Z,3.98
2018-11-27T06:10:26.243Z,4.00
2018-11-27T06:12:55.068Z,3.91
2018-11-27T06:15:24.509Z,3.91
2018-11-27T06:17:57.733Z,3.92
2018-11-27T06:20:26.883Z,3.90
2018-11-27T06:22:56.575Z,3.90
2018-11-27T06:25:26.593Z,3.91
2018-11-27T06:28:07.646Z,3.94
2018-11-27T06:30:36.567Z,4.00
2018-11-27T06:33:05.716Z,4.02
2018-11-27T06:35:36.856Z,4.03
2018-11-27T06:38:07.104Z,4.01
2018-11-27T06:40:35.947Z,4.01
2018-11-27T06:43:06.353Z,4.04
2018-11-27T06:45:35.320Z,4.05
2018-11-27T06:48:04.196Z,4.05
2018-11-27T06:50:33.594Z,4.07
2018-11-27T06:53:02.463Z,4.08
2018-11-27T06:55:31.302Z,4.13
2018-11-27T06:58:00.888Z,4.14
2018-11-27T07:00:30.084Z,4.16
2018-11-27T07:02:59.419Z,4.18
2018-11-27T07:05:28.271Z,4.21
2018-11-27T07:07:57.152Z,4.19
2018-11-27T07:10:28.200Z,4.16
2018-11-27T07:13:23.541Z,4.17
2018-11-27T07:15:52.735Z,4.18
2018-11-27T07:18:21.575Z,4.18
2018-11-27T07:20:50.416Z,4.19
2018-11-27T07:23:19.276Z,4.18
2018-11-27T07:25:48.152Z,4.19
2018-11-27T07:28:16.972Z,4.17
2018-11-27T07:30:46.079Z,4.19
2018-11-27T07:33:14.943Z,4.18
2018-11-27T07:35:43.816Z,4.16
2018-11-27T07:38:12.624Z,4.16
2018-11-27T07:40:41.434Z,4.20
2018-11-27T07:43:14.523Z,4.21
2018-11-27T07:45:43.311Z,4.21
2018-11-27T07:48:12.116Z,4.27
2018-11-27T07:50:40.936Z,4.28
2018-11-27T07:53:09.739Z,4.30
2018-11-27T07:55:38.548Z,4.28
2018-11-27T07:58:07.479Z,4.29
2018-11-27T08:00:36.426Z,4.30
2018-11-27T08:03:06.383Z,4.31
2018-11-27T08:05:37.407Z,4.32
2018-11-27T08:08:07.598Z,4.33
2018-11-27T08:10:36.968Z,4.35
2018-11-27T08:13:07.014Z,4.33
2018-11-27T08:15:35.813Z,4.33
2018-11-27T08:18:04.701Z,4.37
2018-11-27T08:20:34.250Z,4.40
2018-11-27T08:23:03.447Z,4.41
2018-11-27T08:25:32.240Z,4.43
2018-11-27T08:28:01.036Z,4.46
2018-11-27T08:30:29.872Z,4.47
2018-11-27T08:32:58.833Z,4.42
2018-11-27T08:35:29.018Z,4.37
2018-11-27T08:37:59.987Z,4.37
2018-11-27T08:40:31.953Z,4.34
2018-11-27T08:43:00.776Z,4.35
2018-11-27T08:45:29.580Z,4.35
2018-11-27T08:47:58.386Z,4.39
2018-11-27T08:50:27.826Z,4.40
2018-11-27T08:52:57.936Z,4.43
2018-11-27T08:55:28.414Z,4.41
2018-11-27T08:57:57.291Z,4.46
2018-11-27T09:00:26.589Z,4.51
2018-11-27T09:02:55.392Z,4.54
2018-11-27T09:05:24.496Z,4.57
2018-11-27T09:07:53.441Z,4.60
2018-11-27T09:10:23.639Z,4.65
2018-11-27T09:12:52.504Z,4.70
2018-11-27T09:15:22.353Z,4.79
2018-11-27T09:17:53.604Z,4.84
2018-11-27T09:20:22.496Z,4.85
2018-11-27T09:22:51.434Z,4.92
2018-11-27T09:25:20.325Z,5.02
2018-11-27T09:27:49.170Z,5.09
2018-11-27T09:30:25.079Z,5.20
2018-11-27T09:32:55.319Z,5.32
2018-11-27T09:35:34.850Z,5.43
2018-11-27T09:38:09.591Z,5.39
2018-11-27T09:40:38.749Z,5.40
2018-11-27T09:43:07.775Z,5.45
2018-11-27T09:45:38.928Z,5.48
2018-11-27T09:48:07.883Z,5.56
2018-11-27T09:50:36.750Z,5.65
2018-11-27T09:53:07.429Z,5.69
2018-11-27T09:55:36.665Z,5.66
2018-11-27T09:58:15.224Z,5.67
2018-11-27T10:00:44.117Z,5.68
2018-11-27T10:03:14.367Z,5.67
2018-11-27T10:05:43.196Z,5.59
2018-11-27T10:08:12.297Z,5.52
2018-11-27T10:10:41.376Z,5.48
2018-11-27T10:13:10.208Z,5.43
2018-11-27T10:15:39.014Z,5.36
2018-11-27T10:18:07.812Z,5.36
2018-11-27T10:20:38.732Z,5.41
2018-11-27T10:23:09.925Z,5.43
2018-11-27T10:25:39.813Z,5.36
2018-11-27T10:28:08.667Z,5.41
2018-11-27T10:30:37.462Z,5.46
2018-11-27T10:33:08.736Z,5.54
2018-11-27T10:35:46.942Z,5.54
2018-11-27T10:38:15.918Z,5.55
2018-11-27T10:40:45.325Z,5.58
2018-11-27T10:43:19.453Z,5.62
2018-11-27T10:45:43.006Z,5.62
2018-11-27T10:48:11.927Z,5.59
2018-11-27T10:50:40.770Z,5.52
2018-11-27T10:53:10.840Z,5.54
2018-11-27T10:55:39.659Z,5.63
2018-11-27T10:58:08.704Z,5.72
2018-11-27T11:00:43.957Z,5.72
2018-11-27T11:04:15.418Z,5.79
2018-11-27T11:06:44.276Z,5.78
2018-11-27T11:09:13.097Z,5.84
2018-11-27T11:11:41.882Z,5.92
2018-11-27T11:14:16.419Z,5.97
2018-11-27T11:16:45.275Z,6.06
2018-11-27T11:19:18.389Z,6.06
2018-11-27T11:21:42.992Z,6.07
2018-11-27T11:24:19.415Z,6.10
2018-11-27T11:26:50.447Z,6.25
2018-11-27T11:29:19.310Z,6.42
2018-11-27T11:31:54.414Z,6.43
2018-11-27T11:34:27.081Z,6.43
2018-11-27T11:36:57.291Z,6.49
2018-11-27T11:39:26.419Z,6.60
2018-11-27T11:41:57.479Z,6.79
2018-11-27T11:44:26.295Z,7.15
2018-11-27T11:46:55.096Z,7.40
2018-11-27T11:49:23.902Z,7.61
2018-11-27T11:51:52.701Z,7.58
2018-11-27T11:54:21.976Z,7.54
2018-11-27T11:56:50.768Z,7.49
2018-11-27T11:59:19.574Z,7.53
2018-11-27T12:01:48.353Z,7.59
2018-11-27T12:04:17.185Z,7.94
2018-11-27T12:06:46.001Z,8.18
2018-11-27T12:09:15.081Z,8.33
2018-11-27T12:11:43.893Z,8.36
2018-11-27T12:14:12.691Z,8.46
2018-11-27T12:16:41.766Z,8.63
2018-11-27T12:19:10.563Z,8.76
2018-11-27T12:21:39.486Z,8.74
2018-11-27T12:24:08.236Z,8.55
2018-11-27T12:26:38.944Z,8.39
2018-11-27T12:29:07.985Z,8.40
2018-11-27T12:31:36.811Z,8.21
2018-11-27T12:34:05.707Z,8.18
2018-11-27T12:36:34.515Z,8.26
2018-11-27T12:39:03.411Z,8.26
2018-11-27T12:41:32.263Z,8.39
2018-11-27T12:44:01.103Z,8.51
2018-11-27T12:46:30.639Z,8.39
2018-11-27T12:48:59.471Z,8.21
2018-11-27T12:51:28.299Z,8.17
2018-11-27T12:53:57.132Z,8.24
2018-11-27T12:56:25.947Z,8.06
2018-11-27T12:58:54.779Z,8.15
2018-11-27T13:01:23.613Z,8.22
2018-11-27T13:03:52.459Z,8.23
2018-11-27T13:06:21.247Z,8.04
2018-11-27T13:08:50.115Z,7.91
2018-11-27T13:11:19.308Z,7.91
2018-11-27T13:13:48.123Z,7.95
2018-11-27T13:16:16.964Z,7.93
2018-11-27T13:18:45.783Z,7.87
2018-11-27T13:21:14.602Z,7.84
2018-11-27T13:23:44.147Z,7.81
2018-11-27T13:26:12.954Z,7.64
2018-11-27T13:28:41.793Z,7.66
2018-11-27T13:31:11.152Z,7.65
2018-11-27T13:34:13.211Z,7.71
2018-11-27T13:36:42.087Z,7.67
2018-11-27T13:39:22.344Z,7.66
2018-11-27T13:41:51.191Z,7.58
2018-11-27T13:44:20.027Z,7.60
2018-11-27T13:46:49.003Z,7.42
2018-11-27T13:49:17.823Z,7.38
2018-11-27T13:51:46.631Z,7.37
2018-11-27T13:54:15.440Z,7.33
2018-11-27T13:56:44.281Z,7.28
2018-11-27T13:59:13.108Z,7.24
2018-11-27T14:01:41.907Z,7.22
2018-11-27T14:04:10.749Z,7.11
2018-11-27T14:06:39.656Z,7.03
2018-11-27T14:09:10.609Z,6.97
2018-11-27T14:11:39.416Z,6.95
2018-11-27T14:14:08.213Z,6.92
2018-11-27T14:16:37.165Z,7.00
2018-11-27T14:19:05.995Z,7.04
2018-11-27T14:21:34.805Z,7.04
2018-11-27T14:24:03.596Z,7.02
2018-11-27T14:26:32.406Z,7.01
2018-11-27T14:29:01.211Z,6.96
2018-11-27T14:31:30.131Z,6.94
2018-11-27T14:33:58.932Z,6.86
2018-11-27T14:36:35.623Z,6.83
2018-11-27T14:39:09.015Z,6.81
2018-11-27T14:41:37.798Z,6.75
2018-11-27T14:44:06.758Z,6.72
2018-11-27T14:46:35.887Z,6.64
2018-11-27T14:49:04.795Z,6.67
2018-11-27T14:51:33.653Z,6.71
2018-11-27T14:54:02.540Z,6.71
2018-11-27T14:56:31.803Z,6.66
2018-11-27T14:59:00.671Z,6.61
2018-11-27T15:01:29.536Z,6.62
2018-11-27T15:03:58.322Z,6.61
2018-11-27T15:06:27.144Z,6.62
2018-11-27T15:08:56.459Z,6.59
2018-11-27T15:11:25.247Z,6.60
2018-11-27T15:13:54.042Z,6.60
2018-11-27T15:16:22.840Z,6.64
2018-11-27T15:18:51.699Z,6.55
2018-11-27T15:21:20.504Z,6.53
2018-11-27T15:23:49.315Z,6.50
2018-11-27T15:26:18.148Z,6.49
2018-11-27T15:28:46.930Z,6.49
2018-11-27T15:31:15.755Z,6.49
2018-11-27T15:33:44.639Z,6.46
2018-11-27T15:36:13.455Z,6.43
2018-11-27T15:38:42.345Z,6.40
2018-11-27T15:41:11.123Z,6.38
2018-11-27T15:43:41.202Z,6.36
2018-11-27T15:46:11.197Z,6.32
2018-11-27T15:48:39.996Z,6.32
2018-11-27T15:51:08.804Z,6.32
2018-11-27T15:53:37.651Z,6.33
2018-11-27T15:56:06.461Z,6.37
2018-11-27T15:58:35.292Z,6.39
2018-11-27T16:01:04.101Z,6.42
2018-11-27T16:03:32.997Z,6.39
2018-11-27T16:06:01.839Z,6.42
2018-11-27T16:08:30.648Z,6.39
2018-11-27T16:10:59.464Z,6.37
2018-11-27T16:13:28.299Z,6.40
2018-11-27T16:15:57.150Z,6.38
2018-11-27T16:18:25.962Z,6.35
2018-11-27T16:20:54.864Z,6.36
2018-11-27T16:23:23.772Z,6.37
2018-11-27T16:25:52.620Z,6.35
2018-11-27T16:28:21.537Z,6.31
2018-11-27T16:30:50.436Z,6.27
2018-11-27T16:33:19.202Z,6.26
2018-11-27T16:35:48.029Z,6.24
2018-11-27T16:38:16.827Z,6.20
2018-11-27T16:40:45.642Z,6.20
2018-11-27T16:43:14.449Z,6.24
2018-11-27T16:45:43.365Z,6.20
2018-11-27T16:48:12.155Z,6.24
2018-11-27T16:50:41.028Z,6.15
2018-11-27T16:53:09.883Z,6.15
2018-11-27T16:55:38.897Z,6.14
2018-11-27T16:58:07.704Z,6.15
2018-11-27T17:00:36.512Z,6.14
2018-11-27T17:03:06.728Z,6.10
2018-11-27T17:05:37.272Z,6.02
2018-11-27T17:08:06.245Z,5.94
2018-11-27T17:10:35.178Z,5.90
2018-11-27T17:13:06.051Z,5.85
2018-11-27T17:15:34.867Z,5.79
2018-11-27T17:18:03.725Z,5.70
2018-11-27T17:20:34.126Z,5.59
2018-11-27T17:23:04.921Z,5.47
2018-11-27T17:25:39.079Z,5.37
2018-11-27T17:29:44.475Z,5.28
2018-11-27T17:32:13.291Z,5.15
2018-11-27T17:34:42.111Z,5.07
2018-11-27T17:37:10.887Z,5.00
2018-11-27T17:39:39.795Z,4.94
2018-11-27T17:42:08.593Z,4.88
2018-11-27T17:44:37.405Z,4.81
2018-11-27T17:47:06.289Z,4.75
2018-11-27T17:49:36.079Z,4.66
2018-11-27T17:52:03.903Z,4.63
2018-11-27T17:54:33.814Z,4.55
2018-11-27T17:57:03.003Z,4.49
2018-11-27T17:59:31.831Z,4.45
2018-11-27T18:02:00.700Z,4.40
2018-11-27T18:04:29.533Z,4.34
2018-11-27T18:06:58.335Z,4.29
2018-11-27T18:09:27.130Z,4.25
2018-11-27T18:11:55.919Z,4.21
2018-11-27T18:14:24.714Z,4.15
2018-11-27T18:16:53.528Z,4.12
2018-11-27T18:19:22.352Z,4.08
2018-11-27T18:21:51.152Z,4.06
2018-11-27T18:24:19.948Z,4.01
2018-11-27T18:26:48.739Z,3.99
2018-11-27T18:29:17.524Z,3.92
2018-11-27T18:31:46.325Z,3.89
2018-11-27T18:34:15.836Z,3.85
2018-11-27T18:36:44.734Z,3.81
2018-11-27T18:39:13.536Z,3.76
2018-11-27T18:41:42.390Z,3.74
2018-11-27T18:44:11.183Z,3.70
2018-11-27T18:46:40.014Z,3.66
2018-11-27T18:49:08.802Z,3.63
2018-11-27T18:51:37.655Z,3.60
2018-11-27T18:54:06.623Z,3.57
2018-11-27T18:56:35.401Z,3.53
2018-11-27T18:59:04.204Z,3.46
2018-11-27T19:01:33.172Z,3.41
2018-11-27T19:04:02.019Z,3.37
2018-11-27T19:06:30.865Z,3.34
2018-11-27T19:08:59.675Z,3.32
2018-11-27T19:11:28.560Z,3.29
2018-11-27T19:13:58.700Z,3.23
2018-11-27T19:16:28.212Z,3.19
2018-11-27T19:18:57.040Z,3.17
2018-11-27T19:21:25.828Z,3.15
2018-11-27T19:23:54.646Z,3.12
2018-11-27T19:26:23.524Z,3.11
2018-11-27T19:28:52.337Z,3.08
2018-11-27T19:31:21.149Z,3.06
2018-11-27T19:33:56.647Z,3.03
2018-11-27T19:36:25.458Z,2.98
2018-11-27T19:38:54.249Z,2.97
2018-11-27T19:41:23.070Z,2.94
2018-11-27T19:43:51.909Z,2.93
2018-11-27T19:46:20.709Z,2.92
2018-11-27T19:48:53.461Z,2.88
2018-11-27T19:51:18.378Z,2.84
2018-11-27T19:53:47.178Z,2.82
2018-11-27T19:56:16.004Z,2.79
2018-11-27T19:58:44.939Z,2.77
2018-11-27T20:01:13.768Z,2.76
2018-11-27T20:03:42.618Z,2.76
2018-11-27T20:06:13.083Z,2.74
2018-11-27T20:08:41.949Z,2.73
2018-11-27T20:11:10.772Z,2.73
2018-11-27T20:13:40.380Z,2.71
2018-11-27T20:16:09.196Z,2.71
2018-11-27T20:18:38.035Z,2.74
2018-11-27T20:21:07.598Z,2.81
2018-11-27T20:23:36.436Z,2.85
2018-11-27T20:26:09.392Z,2.89
2018-11-27T20:28:38.259Z,2.93
2018-11-27T20:31:07.156Z,2.98
2018-11-27T20:33:35.968Z,2.93
2018-11-27T20:36:04.827Z,2.91
2018-11-27T20:38:33.646Z,2.90
2018-11-27T20:41:02.473Z,2.82
2018-11-27T20:43:34.423Z,2.78
2018-11-27T20:46:03.197Z,2.73
2018-11-27T20:48:32.028Z,2.69
2018-11-27T20:51:00.843Z,2.66
2018-11-27T20:53:30.289Z,2.63
2018-11-27T20:55:59.128Z,2.59
2018-11-27T20:58:27.934Z,2.53
2018-11-27T21:00:56.751Z,2.50
2018-11-27T21:03:25.537Z,2.48
2018-11-27T21:05:54.342Z,2.45
2018-11-27T21:08:23.143Z,2.42
2018-11-27T21:10:51.976Z,2.42
2018-11-27T21:13:20.792Z,2.42
2018-11-27T21:15:49.608Z,2.43
2018-11-27T21:18:18.445Z,2.45
2018-11-27T21:20:47.226Z,2.51
2018-11-27T21:23:16.035Z,2.54
2018-11-27T21:25:44.882Z,2.52
2018-11-27T21:28:15.984Z,2.50
2018-11-27T21:30:45.938Z,2.50
2018-11-27T21:33:14.753Z,2.50
2018-11-27T21:35:43.582Z,2.52
2018-11-27T21:38:12.394Z,2.56
2018-11-27T21:40:41.182Z,2.64
2018-11-27T21:43:09.977Z,2.66
2018-11-27T21:45:38.799Z,2.73
2018-11-27T21:48:08.085Z,2.78
2018-11-27T21:50:43.708Z,2.83
2018-11-27T21:53:12.515Z,2.89
2018-11-27T21:55:42.182Z,2.92
2018-11-27T21:58:10.971Z,2.93
2018-11-27T22:00:41.072Z,2.95
2018-11-27T22:03:11.184Z,2.98
2018-11-27T22:05:40.024Z,3.02
2018-11-27T22:08:08.977Z,3.06
2018-11-27T22:10:38.064Z,3.06
2018-11-27T22:13:08.841Z,3.06
2018-11-27T22:15:38.831Z,3.08
2018-11-27T22:18:08.639Z,3.11
2018-11-27T22:20:37.447Z,3.13
2018-11-27T22:23:07.156Z,3.15
2018-11-27T22:25:42.434Z,3.18
2018-11-27T22:28:11.244Z,3.23
2018-11-27T22:30:40.091Z,3.21
2018-11-27T22:33:09.112Z,3.25
2018-11-27T22:35:38.116Z,3.28
2018-11-27T22:38:07.706Z,3.31
2018-11-27T22:40:36.539Z,3.34
2018-11-27T22:43:06.569Z,3.34
2018-11-27T22:45:36.772Z,3.37
2018-11-27T22:48:08.521Z,3.42
2018-11-27T22:50:37.331Z,3.42
2018-11-27T22:53:08.543Z,3.42
2018-11-27T22:55:37.890Z,3.41
2018-11-27T22:58:07.571Z,3.40
2018-11-27T23:00:41.715Z,3.45
2018-11-27T23:03:10.542Z,3.50
2018-11-27T23:05:39.317Z,3.51
2018-11-27T23:08:08.118Z,3.47
2018-11-27T23:10:38.067Z,3.45
2018-11-27T23:13:06.984Z,3.41
2018-11-27T23:15:35.787Z,3.44
2018-11-27T23:18:04.679Z,3.44
2018-11-27T23:20:33.476Z,3.48
2018-11-27T23:23:02.284Z,3.49
2018-11-27T23:25:32.049Z,3.49
2018-11-27T23:28:00.853Z,3.52
2018-11-27T23:30:30.011Z,3.52
2018-11-27T23:32:58.801Z,3.51
2018-11-27T23:35:27.608Z,3.47
2018-11-27T23:37:56.410Z,3.41
2018-11-27T23:40:25.228Z,3.31
2018-11-27T23:42:54.085Z,3.26
2018-11-27T23:45:23.954Z,3.20
2018-11-27T23:47:52.775Z,3.17
2018-11-27T23:50:22.959Z,3.11
2018-11-27T23:52:51.792Z,3.10
2018-11-27T23:55:20.938Z,3.08
2018-11-27T23:57:49.741Z,3.03
